Time;durP1;ratioP1;P1;durP2;ratioP2;P2;SDS_P1;SDS_P2;PMS_P1;PMS_P2;Temp;Humidity;BMP_temperature;BMP_pressure;BME280_temperature;BME280_humidity;BME280_pressure;Samples;Min_cycle;Max_cycle;Signal;HPM_P1;HPM_P2
2021/08/04 00:00:40;;;;;;;;;12.00;10.25;;;;;35.97;18.48;100706.81;144255;849;133010;-75
2021/08/04 00:03:15;;;;;;;;;11.25;10.00;;;;;35.86;18.71;100703.66;144220;579;132018;-75
2021/08/04 00:05:49;;;;;;;;;9.75;8.75;;;;;35.66;19.34;100708.25;144253;622;131014;-75
2021/08/04 00:08:23;;;;;;;;;11.25;11.00;;;;;35.40;19.69;100709.91;144230;621;131904;-75
2021/08/04 00:10:57;;;;;;;;;11.50;8.25;;;;;35.24;19.45;100714.66;144261;585;132032;-74
2021/08/04 00:13:31;;;;;;;;;9.25;8.00;;;;;34.95;19.40;100725.91;144226;608;132020;-76
2021/08/04 00:16:06;;;;;;;;;11.50;9.25;;;;;35.14;19.35;100727.84;144256;636;132011;-78
2021/08/04 00:18:40;;;;;;;;;9.75;8.25;;;;;35.11;19.46;100732.88;144225;608;132014;-77
2021/08/04 00:21:14;;;;;;;;;9.25;9.25;;;;;35.14;19.27;100736.03;144259;602;131032;-79
2021/08/04 00:23:48;;;;;;;;;12.75;9.00;;;;;35.19;19.49;100732.69;144238;588;132013;-79
2021/08/04 00:26:21;;;;;;;;;9.50;7.75;;;;;35.31;19.14;100727.47;144258;656;132010;-81
2021/08/04 00:28:55;;;;;;;;;14.50;9.50;;;;;35.36;19.09;100725.88;144229;672;132012;-75
2021/08/04 00:31:29;;;;;;;;;7.75;7.50;;;;;35.44;18.87;100727.53;144240;576;132010;-84
2021/08/04 00:34:03;;;;;;;;;11.25;9.25;;;;;35.50;19.26;100721.25;144238;633;131903;-78
2021/08/04 00:36:37;;;;;;;;;9.75;8.25;;;;;35.46;19.15;100722.72;144264;589;131020;-74
2021/08/04 00:39:11;;;;;;;;;15.25;12.50;;;;;35.53;18.59;100717.28;144232;577;132021;-76
2021/08/04 00:41:46;;;;;;;;;12.00;11.50;;;;;35.57;18.85;100710.34;144247;588;132014;-72
2021/08/04 00:44:20;;;;;;;;;9.00;8.50;;;;;35.59;18.19;100720.00;144221;566;132013;-71
2021/08/04 00:46:54;;;;;;;;;11.00;8.25;;;;;35.66;18.29;100710.97;144255;585;132014;-75
2021/08/04 00:49:28;;;;;;;;;7.50;7.50;;;;;35.66;19.18;100710.97;144233;570;132014;-79
2021/08/04 00:52:01;;;;;;;;;14.25;11.50;;;;;35.52;18.80;100716.41;144263;729;132012;-78
2021/08/04 00:54:35;;;;;;;;;12.75;11.00;;;;;35.61;18.89;100722.53;144224;609;132012;-84
2021/08/04 00:57:09;;;;;;;;;13.25;9.25;;;;;35.49;18.89;100713.28;144249;569;131022;-81
2021/08/04 00:59:44;;;;;;;;;7.75;7.50;;;;;35.42;19.04;100713.28;144226;581;132013;-74
2021/08/04 01:02:28;;;;;;;;;8.00;7.50;;;;;35.40;18.92;100715.34;144264;597;132010;-82
2021/08/04 01:05:39;;;;;;;;;10.00;9.00;;;;;35.27;18.71;100716.16;144224;618;132018;-75
2021/08/04 01:08:27;;;;;;;;;9.00;7.00;;;;;35.21;18.61;100730.59;144257;572;132012;-76
2021/08/04 01:11:13;;;;;;;;;9.50;6.00;;;;;34.74;18.89;100724.94;144233;671;132012;-77
2021/08/04 01:13:53;;;;;;;;;8.00;6.50;;;;;34.86;18.62;100731.53;144263;586;132010;-75
2021/08/04 01:16:37;;;;;;;;;5.50;5.50;;;;;34.96;18.48;100733.03;144239;583;132021;-76
2021/08/04 01:19:56;;;;;;;;;7.75;5.50;;;;;34.89;18.31;100709.31;144265;576;131022;-72
2021/08/04 01:23:15;;;;;;;;;6.25;4.75;;;;;34.91;18.30;100714.53;144228;628;132013;-84
2021/08/04 01:26:13;;;;;;;;;9.50;8.25;;;;;34.75;18.55;100724.75;144252;614;131020;-76
2021/08/04 01:28:52;;;;;;;;;7.75;6.50;;;;;34.84;18.35;100736.31;144233;585;131018;-76
2021/08/04 01:31:30;;;;;;;;;9.25;9.25;;;;;34.85;18.09;100734.47;144257;631;132010;-76
2021/08/04 01:34:05;;;;;;;;;8.25;8.25;;;;;34.89;18.13;100744.75;144234;575;132020;-74
2021/08/04 01:36:40;;;;;;;;;9.00;7.50;;;;;34.62;18.49;100719.22;144267;642;131020;-76
2021/08/04 01:39:17;;;;;;;;;9.50;9.25;;;;;34.47;18.47;100735.69;144234;624;131904;-82
2021/08/04 01:41:53;;;;;;;;;10.50;9.00;;;;;34.66;18.12;100734.12;144260;569;132010;-85
2021/08/04 01:44:28;;;;;;;;;11.25;10.25;;;;;34.77;18.75;100740.06;144243;625;131018;-76
2021/08/04 01:47:03;;;;;;;;;11.50;9.25;;;;;34.70;18.56;100740.03;144254;571;131020;-83
2021/08/04 01:49:37;;;;;;;;;13.25;10.75;;;;;34.80;18.51;100747.81;144228;626;132012;-79
2021/08/04 01:52:12;;;;;;;;;14.00;12.75;;;;;34.88;18.50;100753.97;144243;597;132014;-74
2021/08/04 01:54:46;;;;;;;;;16.25;12.25;;;;;34.84;18.55;100755.41;144220;579;132014;-77
2021/08/04 01:57:20;;;;;;;;;13.75;11.50;;;;;34.63;18.62;100745.44;144253;615;132010;-70
2021/08/04 01:59:54;;;;;;;;;14.00;14.00;;;;;34.49;18.91;100749.09;144226;621;132904;-76
2021/08/04 02:02:28;;;;;;;;;13.25;12.75;;;;;34.38;19.01;100747.81;144256;600;131022;-80
2021/08/04 02:05:02;;;;;;;;;12.75;11.00;;;;;34.57;18.66;100755.25;144224;605;132904;-82
2021/08/04 02:08:11;;;;;;;;;13.75;13.75;;;;;34.81;19.06;100747.66;144247;579;133021;-78
2021/08/04 02:11:14;;;;;;;;;14.00;13.00;;;;;34.24;19.52;100720.44;144229;612;131905;-77
2021/08/04 02:14:16;;;;;;;;;15.75;13.50;;;;;34.68;19.08;100742.94;144258;644;132010;-76
2021/08/04 02:17:10;;;;;;;;;14.00;11.50;;;;;34.85;18.99;100743.47;144222;604;132012;-78
2021/08/04 02:19:54;;;;;;;;;18.25;16.50;;;;;34.69;19.83;100739.19;144239;588;132010;-80
2021/08/04 02:22:49;;;;;;;;;13.75;12.00;;;;;34.34;20.58;100725.56;144224;576;131904;-68
2021/08/04 02:25:38;;;;;;;;;15.75;15.50;;;;;34.02;20.87;100754.19;144253;583;131020;-72
2021/08/04 02:28:17;;;;;;;;;14.75;13.50;;;;;34.95;20.97;100745.00;144229;584;131904;-74
2021/08/04 02:30:56;;;;;;;;;12.75;11.25;;;;;34.65;21.31;100740.62;144245;685;132014;-76
2021/08/04 02:33:32;;;;;;;;;17.50;12.00;;;;;34.63;21.51;100750.88;144225;571;131903;-75
2021/08/04 02:36:06;;;;;;;;;13.50;12.25;;;;;35.28;22.02;100753.28;144249;631;132011;-72
2021/08/04 02:38:40;;;;;;;;;11.50;10.75;;;;;35.43;22.16;100755.87;144224;625;132012;-76
2021/08/04 02:41:15;;;;;;;;;13.00;12.00;;;;;35.59;22.08;100760.94;144253;605;132010;-71
2021/08/04 02:43:49;;;;;;;;;12.75;12.75;;;;;35.74;21.71;100766.22;144221;733;132013;-75
2021/08/04 02:46:23;;;;;;;;;15.00;13.00;;;;;35.78;20.45;100763.09;144240;579;132010;-80
2021/08/04 02:48:57;;;;;;;;;16.00;14.25;;;;;35.90;20.37;100762.28;144226;639;131020;-70
2021/08/04 02:51:33;;;;;;;;;14.00;11.75;;;;;35.84;23.08;100767.72;144247;571;132014;-72
2021/08/04 02:54:07;;;;;;;;;13.00;12.25;;;;;35.73;23.29;100770.00;144217;566;132014;-77
2021/08/04 02:56:41;;;;;;;;;14.00;14.00;;;;;35.78;23.14;100772.09;144247;601;132010;-73
2021/08/04 02:59:15;;;;;;;;;17.00;11.50;;;;;35.80;22.60;100766.44;144222;587;132013;-72
2021/08/04 03:01:49;;;;;;;;;13.75;12.00;;;;;35.62;21.66;100775.22;144252;563;132010;-72
2021/08/04 03:04:23;;;;;;;;;16.25;13.00;;;;;35.65;21.71;100780.28;144223;569;132906;-76
2021/08/04 03:06:56;;;;;;;;;13.00;11.25;;;;;35.71;21.42;100790.38;144257;590;131021;-71
2021/08/04 03:09:30;;;;;;;;;10.75;9.75;;;;;35.63;20.81;100791.41;144222;633;132012;-72
2021/08/04 03:12:04;;;;;;;;;12.50;12.00;;;;;35.53;20.80;100789.06;144245;683;132008;-79
2021/08/04 03:14:38;;;;;;;;;15.25;10.25;;;;;35.08;20.95;100791.41;144217;564;132014;-75
2021/08/04 03:17:12;;;;;;;;;15.00;10.50;;;;;35.00;20.85;100792.41;144260;628;131020;-75
2021/08/04 03:19:46;;;;;;;;;14.75;11.25;;;;;34.96;20.68;100798.50;144230;694;131904;-76
2021/08/04 03:22:20;;;;;;;;;12.25;10.50;;;;;34.91;20.41;100799.09;144256;564;131021;-81
2021/08/04 03:24:54;;;;;;;;;11.50;11.00;;;;;34.83;20.30;100799.25;144219;581;132012;-91
2021/08/04 03:27:29;;;;;;;;;13.50;11.00;;;;;34.81;20.85;100812.22;144248;576;132015;-89
2021/08/04 03:30:03;;;;;;;;;14.00;12.75;;;;;34.81;21.25;100810.34;144222;605;132019;-89
2021/08/04 03:32:37;;;;;;;;;15.75;13.25;;;;;34.88;20.11;100797.59;144253;569;132010;-81
2021/08/04 03:35:12;;;;;;;;;12.25;11.25;;;;;34.75;19.95;100798.34;144227;590;131016;-82
2021/08/04 03:37:47;;;;;;;;;16.75;15.75;;;;;34.71;20.27;100799.78;144242;579;132010;-78
2021/08/04 03:40:21;;;;;;;;;11.00;10.25;;;;;34.69;20.46;100803.75;144212;593;132012;-76
2021/08/04 03:42:55;;;;;;;;;13.00;11.50;;;;;34.58;20.42;100797.84;144250;607;132015;-84
2021/08/04 03:45:29;;;;;;;;;14.00;12.25;;;;;34.46;20.57;100804.88;144224;569;132018;-84
2021/08/04 03:48:03;;;;;;;;;15.00;11.25;;;;;34.47;20.83;100803.81;144251;579;132014;-85
2021/08/04 03:50:37;;;;;;;;;15.25;13.00;;;;;34.52;20.80;100804.06;144219;583;132904;-85
2021/08/04 03:53:11;;;;;;;;;14.50;13.25;;;;;34.54;21.02;100802.00;144247;585;132008;-85
2021/08/04 03:55:45;;;;;;;;;14.75;11.75;;;;;34.53;20.76;100805.75;144223;675;132904;-84
2021/08/04 03:58:18;;;;;;;;;15.00;10.75;;;;;34.57;20.60;100817.94;144256;610;132010;-83
2021/08/04 04:00:52;;;;;;;;;14.00;13.50;;;;;34.44;20.75;100809.66;144227;594;131018;-79
2021/08/04 04:03:26;;;;;;;;;10.00;10.00;;;;;34.38;21.22;100803.13;144246;597;132014;-77
2021/08/04 04:06:00;;;;;;;;;16.75;12.75;;;;;34.18;21.32;100808.38;144231;751;131020;-74
2021/08/04 04:08:34;;;;;;;;;16.00;15.00;;;;;34.20;21.85;100814.50;144259;725;131020;-73
2021/08/04 04:11:09;;;;;;;;;11.75;11.00;;;;;34.20;21.71;100810.91;144225;622;132018;-74
2021/08/04 04:13:43;;;;;;;;;13.25;11.00;;;;;34.23;22.34;100818.72;144249;623;132010;-76
2021/08/04 04:16:17;;;;;;;;;13.25;12.75;;;;;34.21;22.65;100829.78;144226;607;132903;-76
2021/08/04 04:18:51;;;;;;;;;13.25;12.00;;;;;34.23;22.33;100824.16;144258;655;131020;-75
2021/08/04 04:21:25;;;;;;;;;13.25;12.00;;;;;34.21;23.35;100826.22;144224;587;132014;-79
2021/08/04 04:23:59;;;;;;;;;17.00;12.00;;;;;34.06;23.72;100831.75;144250;606;132012;-81
2021/08/04 04:26:33;;;;;;;;;18.25;15.25;;;;;33.92;24.47;100830.78;144220;626;132034;-72
2021/08/04 04:29:07;;;;;;;;;17.00;15.25;;;;;33.99;24.35;100837.13;144246;588;131021;-81
2021/08/04 04:31:42;;;;;;;;;20.50;14.25;;;;;34.05;24.63;100835.50;144228;664;131925;-79
2021/08/04 04:34:16;;;;;;;;;15.75;10.75;;;;;34.12;24.84;100841.00;144253;611;132012;-82
2021/08/04 04:36:50;;;;;;;;;13.00;10.00;;;;;34.22;24.98;100836.91;144222;615;132012;-81
2021/08/04 04:39:24;;;;;;;;;12.00;10.75;;;;;34.37;25.55;100846.94;144248;623;132014;-78
2021/08/04 04:41:58;;;;;;;;;14.00;13.50;;;;;34.49;25.56;100845.34;144221;597;132904;-78
2021/08/04 04:44:32;;;;;;;;;11.25;10.00;;;;;34.62;25.98;100847.31;144254;630;132010;-79
2021/08/04 04:47:06;;;;;;;;;16.00;14.25;;;;;34.69;26.35;100852.81;144223;598;132012;-76
2021/08/04 04:49:40;;;;;;;;;15.00;12.50;;;;;34.95;26.15;100852.19;144256;627;132008;-79
2021/08/04 04:52:14;;;;;;;;;15.50;13.00;;;;;35.15;25.66;100855.03;144226;579;132014;-82
2021/08/04 04:54:48;;;;;;;;;16.00;13.50;;;;;35.24;25.43;100859.28;144244;582;131020;-71
2021/08/04 04:57:22;;;;;;;;;11.25;10.75;;;;;35.34;25.60;100866.28;144229;583;132013;-76
2021/08/04 04:59:56;;;;;;;;;16.25;13.75;;;;;35.39;26.11;100863.75;144259;618;131020;-76
2021/08/04 05:02:30;;;;;;;;;13.25;13.25;;;;;35.58;25.94;100862.16;144226;621;132904;-76
2021/08/04 05:05:04;;;;;;;;;16.50;12.00;;;;;35.69;25.89;100857.97;144243;635;132014;-80
2021/08/04 05:07:38;;;;;;;;;13.00;13.00;;;;;35.90;25.43;100860.59;144216;719;132903;-79
2021/08/04 05:10:12;;;;;;;;;14.75;13.00;;;;;36.13;26.04;100867.56;144254;569;132014;-82
2021/08/04 05:12:46;;;;;;;;;18.50;15.25;;;;;36.39;25.97;100868.66;144226;569;131893;-78
2021/08/04 05:15:20;;;;;;;;;20.25;14.75;;;;;36.51;25.22;100869.72;144247;586;132014;-80
2021/08/04 05:17:54;;;;;;;;;16.25;14.75;;;;;36.61;24.52;100871.16;144213;570;132015;-82
2021/08/04 05:20:30;;;;;;;;;15.75;13.50;;;;;36.65;24.41;100862.34;144240;606;132022;-79
2021/08/04 05:23:04;;;;;;;;;14.50;14.50;;;;;36.80;24.21;100859.41;144222;644;132020;-82
2021/08/04 05:25:40;;;;;;;;;12.25;12.00;;;;;36.92;23.71;100868.63;144251;577;132011;-80
2021/08/04 05:28:14;;;;;;;;;13.50;11.25;;;;;36.99;23.50;100865.03;144217;591;132012;-81
2021/08/04 05:30:48;;;;;;;;;14.00;12.75;;;;;37.08;23.06;100867.31;144258;580;131020;-82
2021/08/04 05:33:30;;;;;;;;;15.50;12.00;;;;;37.16;22.48;100874.44;144227;606;131904;-83
2021/08/04 05:36:04;;;;;;;;;19.25;14.25;;;;;37.16;22.51;100866.25;144244;616;132020;-83
2021/08/04 05:38:38;;;;;;;;;20.00;17.75;;;;;37.16;21.78;100877.19;144225;656;131903;-83
2021/08/04 05:41:12;;;;;;;;;12.50;11.50;;;;;37.24;20.29;100876.12;144261;637;131021;-77
2021/08/04 05:43:46;;;;;;;;;19.25;17.25;;;;;37.12;18.91;100878.66;144224;570;131903;-74
2021/08/04 05:46:19;;;;;;;;;15.00;13.25;;;;;37.41;19.30;100884.69;144246;580;131034;-73
2021/08/04 05:48:53;;;;;;;;;14.50;13.50;;;;;36.99;19.03;100884.16;144219;641;132013;-75
2021/08/04 05:51:27;;;;;;;;;14.50;13.50;;;;;36.62;18.49;100891.97;144251;632;131995;-74
2021/08/04 05:54:01;;;;;;;;;20.50;15.00;;;;;36.88;18.52;100888.41;144229;570;132904;-73
2021/08/04 05:56:35;;;;;;;;;16.00;15.00;;;;;37.59;19.25;100889.47;144247;564;132014;-72
2021/08/04 05:59:09;;;;;;;;;20.00;16.25;;;;;37.53;18.95;100896.66;144222;615;132014;-69
2021/08/04 06:01:43;;;;;;;;;15.25;14.00;;;;;38.02;17.88;100896.22;144252;573;132008;-77
2021/08/04 06:04:17;;;;;;;;;18.50;16.00;;;;;38.36;18.06;100905.06;144228;574;132904;-70
2021/08/04 06:06:51;;;;;;;;;16.25;14.50;;;;;38.55;18.49;100900.47;144246;621;132008;-73
2021/08/04 06:09:25;;;;;;;;;16.25;14.25;;;;;38.74;18.49;100898.63;144221;576;132002;-79
2021/08/04 06:11:59;;;;;;;;;19.50;17.75;;;;;38.90;18.18;100900.78;144247;622;131021;-80
2021/08/04 06:14:33;;;;;;;;;17.00;16.75;;;;;39.13;18.06;100904.78;144227;726;131903;-75
2021/08/04 06:17:07;;;;;;;;;20.25;16.00;;;;;39.25;17.92;100900.22;144246;570;132010;-76
2021/08/04 06:19:41;;;;;;;;;17.25;15.00;;;;;39.38;17.20;100910.22;144227;582;131904;-80
2021/08/04 06:22:15;;;;;;;;;19.00;16.50;;;;;39.54;17.51;100905.16;144256;581;132010;-75
2021/08/04 06:24:49;;;;;;;;;18.75;17.25;;;;;39.74;17.36;100913.19;144220;564;132018;-80
2021/08/04 06:27:23;;;;;;;;;19.50;16.50;;;;;39.47;17.07;100912.66;144252;577;131020;-81
2021/08/04 06:29:57;;;;;;;;;19.25;17.25;;;;;39.78;16.56;100906.16;144226;645;131904;-82
2021/08/04 06:32:31;;;;;;;;;19.50;17.00;;;;;39.91;16.95;100905.09;144249;631;132010;-83
2021/08/04 06:35:05;;;;;;;;;22.75;18.75;;;;;40.13;15.67;100905.44;144227;577;131903;-82
2021/08/04 06:37:39;;;;;;;;;20.00;18.75;;;;;40.18;16.22;100907.50;144240;587;132014;-84
2021/08/04 06:40:14;;;;;;;;;28.50;25.00;;;;;40.38;17.10;100907.16;144223;597;132013;-85
2021/08/04 06:42:48;;;;;;;;;22.25;21.25;;;;;40.47;16.39;100900.22;144258;637;131020;-86
2021/08/04 06:45:23;;;;;;;;;17.25;17.25;;;;;39.67;16.66;100906.91;144225;564;131904;-85
2021/08/04 06:47:57;;;;;;;;;20.00;18.00;;;;;40.01;15.95;100907.28;144254;564;131020;-84
2021/08/04 06:50:31;;;;;;;;;19.50;19.00;;;;;39.74;15.91;100908.50;144227;588;131903;-88
2021/08/04 06:53:04;;;;;;;;;19.50;19.50;;;;;40.60;14.84;100907.47;144252;565;132008;-88
2021/08/04 06:55:38;;;;;;;;;23.25;20.00;;;;;40.66;14.37;100911.16;144218;608;132904;-86
2021/08/04 06:58:12;;;;;;;;;20.50;19.50;;;;;40.35;14.75;100913.12;144250;710;132010;-87
2021/08/04 07:00:47;;;;;;;;;20.00;18.50;;;;;40.45;15.41;100905.13;144224;600;132012;-87
2021/08/04 07:03:22;;;;;;;;;19.75;17.00;;;;;40.64;14.88;100907.78;144226;667;132021;-88
2021/08/04 07:05:56;;;;;;;;;21.00;18.00;;;;;40.33;14.97;100902.38;144213;647;132903;-87
2021/08/04 07:08:30;;;;;;;;;21.75;18.75;;;;;41.13;14.47;100911.13;144250;583;132010;-89
2021/08/04 07:11:04;;;;;;;;;23.50;21.00;;;;;41.27;14.08;100911.72;144223;579;131903;-90
2021/08/04 07:13:38;;;;;;;;;20.25;17.00;;;;;41.36;14.34;100909.41;144247;586;132010;-87
2021/08/04 07:16:12;;;;;;;;;19.00;17.50;;;;;41.61;14.34;100906.34;144215;581;132013;-87
2021/08/04 07:18:46;;;;;;;;;19.50;18.25;;;;;41.64;14.11;100910.53;144238;629;132046;-84
2021/08/04 07:21:21;;;;;;;;;20.75;17.75;;;;;41.45;14.17;100908.00;144210;630;132903;-85
2021/08/04 07:23:54;;;;;;;;;23.50;20.50;;;;;42.15;13.65;100903.25;144239;608;132010;-87
2021/08/04 07:26:28;;;;;;;;;20.00;18.00;;;;;42.11;13.39;100907.56;144221;654;132012;-86
2021/08/04 07:29:02;;;;;;;;;15.75;15.75;;;;;41.93;13.39;100908.66;144232;655;132020;-85
2021/08/04 07:31:38;;;;;;;;;20.25;19.50;;;;;42.17;13.14;100901.06;144214;571;132018;-87
2021/08/04 07:34:14;;;;;;;;;19.25;16.00;;;;;42.14;14.16;100904.31;144238;579;132014;-85
2021/08/04 07:36:48;;;;;;;;;20.00;17.75;;;;;42.03;17.58;100910.75;144220;598;132018;-88
2021/08/04 07:39:22;;;;;;;;;18.75;18.00;;;;;41.74;19.29;100913.50;144249;596;132010;-82
2021/08/04 07:41:56;;;;;;;;;16.25;15.50;;;;;41.88;17.73;100916.81;144218;563;132014;-79
2021/08/04 07:44:30;;;;;;;;;16.25;12.50;;;;;41.76;17.50;100914.06;144249;600;132010;-76
2021/08/04 07:47:04;;;;;;;;;19.50;16.75;;;;;41.43;17.51;100916.50;144229;610;131904;-76
2021/08/04 07:49:38;;;;;;;;;16.50;16.00;;;;;41.59;21.24;100914.87;144251;590;131022;-76
2021/08/04 07:52:12;;;;;;;;;16.75;16.75;;;;;41.51;21.26;100908.91;144226;762;132012;-77
2021/08/04 07:54:46;;;;;;;;;15.50;15.50;;;;;41.41;20.95;100909.56;144249;623;131021;-78
2021/08/04 07:57:20;;;;;;;;;16.50;16.50;;;;;41.79;20.61;100905.38;144227;628;131903;-77
2021/08/04 07:59:54;;;;;;;;;20.50;18.75;;;;;41.60;22.69;100908.28;144257;593;131020;-78
2021/08/04 08:02:28;;;;;;;;;19.75;17.00;;;;;41.42;23.41;100909.31;144220;615;132014;-75
2021/08/04 08:05:02;;;;;;;;;15.00;14.75;;;;;41.56;22.66;100898.84;144249;625;132010;-77
2021/08/04 08:07:36;;;;;;;;;16.75;14.50;;;;;41.32;22.71;100894.47;144217;682;132018;-78
2021/08/04 08:10:11;;;;;;;;;15.00;13.00;;;;;41.49;21.85;100900.91;144253;565;132010;-76
2021/08/04 08:12:45;;;;;;;;;15.50;14.00;;;;;41.42;22.13;100895.53;144223;664;132014;-76
2021/08/04 08:15:19;;;;;;;;;16.25;14.00;;;;;41.85;20.67;100896.09;144252;595;132010;-78
2021/08/04 08:17:53;;;;;;;;;12.75;12.50;;;;;41.32;20.77;100888.94;144225;649;131904;-77
2021/08/04 08:20:28;;;;;;;;;13.25;11.50;;;;;41.67;19.80;100890.78;144240;616;132014;-77
2021/08/04 10:02:35;;;;;;;;;8.33;6.67;;;;;42.16;14.71;100800.13;144381;564;131022;-73
2021/08/04 10:05:27;;;;;;;;;9.33;8.00;;;;;42.05;13.72;100790.88;144259;579;132011;-73
2021/08/04 10:08:11;;;;;;;;;8.50;8.25;;;;;41.72;14.40;100794.41;144295;569;132008;-70
2021/08/04 10:10:52;;;;;;;;;13.25;10.25;;;;;42.18;13.88;100786.91;144263;645;131022;-72
2021/08/04 10:13:32;;;;;;;;;9.00;9.00;;;;;41.99;13.37;100785.53;144276;595;132008;-71
2021/08/04 10:16:06;;;;;;;;;7.00;7.00;;;;;41.93;13.71;100790.94;144265;575;132010;-72
2021/08/04 10:18:44;;;;;;;;;11.67;9.00;;;;;42.41;13.59;100793.37;144296;676;132008;-73
2021/08/04 10:21:20;;;;;;;;;11.00;8.67;;;;;41.93;13.42;100793.69;144258;670;132012;-72
2021/08/04 10:23:56;;;;;;;;;12.50;9.50;;;;;41.89;13.38;100777.94;144291;595;131020;-72
2021/08/04 10:26:30;;;;;;;;;13.25;11.25;;;;;42.12;13.11;100776.91;144261;583;131905;-72
2021/08/04 10:29:06;;;;;;;;;10.75;9.00;;;;;42.00;13.14;100776.19;144266;611;132012;-71
2021/08/04 10:31:42;;;;;;;;;8.00;8.00;;;;;42.07;12.98;100765.81;144254;603;132904;-71
2021/08/04 10:34:16;;;;;;;;;8.75;8.25;;;;;41.80;13.16;100771.97;144298;576;131021;-72
2021/08/04 10:36:50;;;;;;;;;9.75;9.50;;;;;41.97;12.47;100773.91;144256;659;132905;-73
2021/08/04 10:39:24;;;;;;;;;10.00;10.00;;;;;41.86;11.69;100776.50;144293;566;131020;-73
2021/08/04 10:42:12;;;;;;;;;10.50;9.50;;;;;42.28;11.94;100765.06;144241;570;131013;-73
2021/08/04 10:44:46;;;;;;;;;5.33;5.00;;;;;42.08;12.15;100767.47;144300;615;131008;-73
2021/08/04 10:47:30;;;;;;;;;10.33;9.00;;;;;42.11;11.94;100766.97;144263;596;132018;-73
2021/08/04 10:50:15;;;;;;;;;10.00;7.75;;;;;42.12;11.14;100768.66;144296;634;131021;-73
2021/08/04 10:53:21;;;;;;;;;12.25;9.25;;;;;41.85;11.31;100758.28;144258;616;132012;-72
2021/08/04 10:55:59;;;;;;;;;7.00;6.00;;;;;41.82;10.92;100758.81;144294;606;131020;-72
2021/08/04 10:58:33;;;;;;;;;10.00;8.50;;;;;42.09;11.11;100758.94;144256;622;132010;-73
2021/08/04 11:01:26;;;;;;;;;11.25;9.00;;;;;42.21;10.64;100750.62;144293;571;132006;-73
2021/08/04 11:04:00;;;;;;;;;11.50;9.50;;;;;41.92;11.09;100758.94;144251;592;132010;-74
2021/08/04 11:06:34;;;;;;;;;9.75;9.00;;;;;41.77;11.59;100750.41;144284;595;131021;-70
2021/08/04 11:09:37;;;;;;;;;9.00;9.00;;;;;41.93;11.69;100749.59;144246;602;132010;-70
2021/08/04 11:12:19;;;;;;;;;9.67;9.67;;;;;42.26;11.75;100753.44;144288;630;132008;-71
2021/08/04 11:14:58;;;;;;;;;7.67;6.67;;;;;42.83;10.65;100745.94;144251;572;132010;-72
2021/08/04 11:17:37;;;;;;;;;8.00;8.00;;;;;42.95;9.71;100743.00;144286;591;132008;-70
2021/08/04 11:20:13;;;;;;;;;11.00;9.00;;;;;42.70;10.21;100746.31;144255;677;131905;-71
2021/08/04 11:22:53;;;;;;;;;9.33;7.00;;;;;42.64;10.34;100734.38;144289;731;131021;-76
2021/08/04 11:25:41;;;;;;;;;7.67;6.00;;;;;42.78;9.85;100735.66;144248;591;132905;-73
2021/08/04 11:28:20;;;;;;;;;8.67;8.33;;;;;42.75;9.54;100733.41;144285;625;132012;-75
2021/08/04 11:30:59;;;;;;;;;11.67;6.67;;;;;42.24;9.74;100733.56;144254;622;132019;-72
2021/08/04 11:33:34;;;;;;;;;8.75;6.75;;;;;42.41;10.15;100724.41;144288;641;131020;-72
2021/08/04 11:36:23;;;;;;;;;8.00;6.50;;;;;42.25;10.07;100724.22;144249;628;132012;-73
2021/08/04 11:39:09;;;;;;;;;10.75;10.00;;;;;42.69;9.90;100722.56;144287;577;131022;-72
2021/08/04 11:41:52;;;;;;;;;13.00;8.75;;;;;42.80;10.15;100718.00;144230;588;132905;-72
2021/08/04 11:44:32;;;;;;;;;8.67;8.67;;;;;42.51;10.76;100719.00;144282;655;132008;-74
2021/08/04 11:47:12;;;;;;;;;10.00;9.00;;;;;42.61;9.71;100710.88;144251;624;132010;-71
2021/08/04 11:49:49;;;;;;;;;8.25;7.25;;;;;42.44;9.84;100707.34;144285;631;131021;-77
2021/08/04 11:52:28;;;;;;;;;12.00;9.50;;;;;42.35;9.93;100706.09;144246;576;132012;-75
2021/08/04 11:55:15;;;;;;;;;9.25;9.25;;;;;42.87;9.92;100702.91;144278;634;132008;-73
2021/08/04 11:57:49;;;;;;;;;6.75;6.75;;;;;42.84;10.40;100703.41;144248;606;132011;-73
2021/08/04 12:00:28;;;;;;;;;12.00;10.67;;;;;42.81;9.88;100703.12;144289;630;131034;-73
2021/08/04 12:03:06;;;;;;;;;9.75;9.00;;;;;42.38;9.81;100694.59;144254;618;130905;-74
2021/08/04 12:05:40;;;;;;;;;12.25;10.25;;;;;42.98;10.00;100680.94;144303;580;131012;-73
2021/08/04 12:08:14;;;;;;;;;8.00;7.50;;;;;42.72;9.63;100688.94;144250;649;131010;-73
2021/08/04 12:10:55;;;;;;;;;11.50;9.00;;;;;42.73;9.89;100693.38;144305;677;131013;-73
2021/08/04 12:13:29;;;;;;;;;6.00;6.00;;;;;43.15;9.36;100691.91;144275;683;130905;-73
2021/08/04 12:16:06;;;;;;;;;10.25;9.75;;;;;42.91;9.33;100687.50;144308;609;131010;-73
2021/08/04 12:18:51;;;;;;;;;7.00;7.00;;;;;42.91;9.45;100681.13;144278;661;130905;-73
2021/08/04 12:21:25;;;;;;;;;11.25;9.50;;;;;43.14;9.45;100679.19;144309;590;131008;-74
2021/08/04 12:24:02;;;;;;;;;5.00;4.67;;;;;43.02;10.05;100676.53;144273;582;131010;-73
2021/08/04 12:26:49;;;;;;;;;15.00;12.00;;;;;43.48;9.71;100671.50;144304;704;131006;-73
2021/08/04 12:29:26;;;;;;;;;11.00;11.00;;;;;43.27;9.67;100668.53;144249;650;131011;-73
2021/08/04 12:32:15;;;;;;;;;9.00;9.00;;;;;43.31;9.09;100663.34;144284;604;131010;-72
2021/08/04 12:35:00;;;;;;;;;9.50;9.25;;;;;43.13;9.97;100667.31;144271;616;131905;-73
2021/08/04 12:37:34;;;;;;;;;10.50;9.00;;;;;43.11;9.91;100661.22;144307;630;131012;-74
2021/08/04 12:40:17;;;;;;;;;11.75;9.00;;;;;42.61;10.24;100654.88;144272;598;131905;-72
2021/08/04 12:42:51;;;;;;;;;8.75;8.75;;;;;42.30;10.33;100648.16;144305;564;131008;-73
2021/08/04 12:45:30;;;;;;;;;9.00;9.00;;;;;42.34;10.76;100654.81;144275;657;131904;-73
2021/08/04 12:48:06;;;;;;;;;12.00;10.00;;;;;42.59;10.36;100652.34;144309;586;130020;-72
2021/08/04 12:50:58;;;;;;;;;11.00;9.33;;;;;42.27;10.80;100655.84;144254;610;131905;-73
2021/08/04 12:53:34;;;;;;;;;14.00;12.33;;;;;42.93;10.68;100649.41;144309;584;131008;-73
2021/08/04 12:56:18;;;;;;;;;7.75;7.75;;;;;42.89;10.12;100650.22;144249;583;131905;-73
2021/08/04 12:59:13;;;;;;;;;9.00;9.00;;;;;42.55;12.24;100651.19;144310;574;130021;-73
2021/08/04 13:01:50;;;;;;;;;7.75;7.75;;;;;43.11;12.30;100651.00;144264;675;131020;-73
2021/08/04 13:04:34;;;;;;;;;10.25;8.75;;;;;43.01;12.57;100644.53;144289;604;132006;-73
2021/08/04 13:07:15;;;;;;;;;7.00;7.00;;;;;42.47;12.53;100648.06;144253;636;132904;-74
2021/08/04 13:09:52;;;;;;;;;9.67;9.67;;;;;42.10;13.71;100655.00;144288;571;132008;-73
2021/08/04 13:12:31;;;;;;;;;8.50;7.75;;;;;42.42;14.94;100652.44;144249;577;133021;-72
2021/08/04 13:15:20;;;;;;;;;10.25;8.50;;;;;42.21;16.57;100645.84;144288;609;131020;-71
2021/08/04 13:17:58;;;;;;;;;11.25;9.25;;;;;41.35;18.50;100640.59;144254;586;132010;-72
2021/08/04 13:20:41;;;;;;;;;9.50;7.00;;;;;41.08;18.79;100641.28;144284;569;131023;-73
2021/08/04 13:23:19;;;;;;;;;8.50;7.25;;;;;42.17;18.33;100639.09;144252;573;132018;-73
2021/08/04 13:25:59;;;;;;;;;10.25;9.50;;;;;42.00;17.96;100646.63;144285;596;132013;-72
2021/08/04 13:28:43;;;;;;;;;10.25;9.75;;;;;42.10;17.96;100639.31;144247;577;132904;-73
2021/08/04 13:31:22;;;;;;;;;10.25;9.25;;;;;41.76;18.75;100635.75;144286;632;131020;-72